Atqasuk, Alaska
Current Conditions -  °F | °C
As of 3:56 AM on Thursday 18 Dec 2014 (Local Time) from PATQ Reporting Station
Light Snow Light Snow  
Wind Chill: -37°   Ceiling: 5000
Heat Index: -12°   Visibility: 7mi
Dew Point: -17°   Wind: 18mph
Humidity: 78%   Direction: 80°E
Pressure: 29.87"   Gusts: NA
Location:  70.47°N, 157.4°W
Report Text: PATQ 181256Z AUTO 08016KT 7SM -SN FEW029 SCT037 OVC050 M24/M27 A2987 RMK AO2 TSNO T12441272 P0000 SLP122 $
Loading
Personal Weather Stations






























Interactive Weather Map New forecast layout! Learn more

10-Day Weather Forecast

Advertisements
Track Severe Weather on mobile